Fairpartner — PHEC — position and weather

sailwx.info

Track history (hours):
 
Tides and Currents Weather Stations Pressure Air Temp Water Temp Dewpoint Dewpoint Depression Visibility Wind Speed Wind Dir Waves Ship Positions

Fairpartner

Last reported at 2015-May-27 00:33 UTC. Time now 2015-May-28 08:09 UTC.
Position N 32°39' E 029°06'.

Length 143 m; beam 27 m.

Type: Cargo ship. MMSI: 246466992.

Date/timePositionNaut miles runAvg speedWind from/ knotsBaromVisibWave heightAir tempDewpointWater temp
2015-May-27 00:33N 32°39' E 029°06'1616.3
2015-May-26 23:33N 32°33' E 029°25'3316.7
2015-May-26 21:33N 32°23' E 030°02'1716.8
2015-May-26 20:33N 32°18' E 030°21'1716.7
2015-May-26 19:33N 32°13' E 030°40'1716.8
2015-May-26 18:33N 32°07' E 030°59'1716.6
2015-May-26 17:33N 32°01' E 031°17'1616.1
2015-May-26 16:33N 31°54' E 031°35'1616.1
2015-May-26 15:33N 31°48' E 031°52'1515.4
2015-May-26 14:33N 31°39' E 032°06'1515.3
2015-May-26 13:33N 31°29' E 032°20'1110.9
2015-May-26 12:33N 31°18' E 032°22'9 8.6
2015-May-26 11:33N 31°10' E 032°20'11 9.4
2015-May-26 10:25N 30°59' E 032°19'62 8.5
2015-May-26 03:08N 29°59' E 032°35'6 8.0
2015-May-26 02:21N 29°54' E 032°31'  
Track history (hours):
 
Tides and Currents Weather Stations Pressure Air Temp Water Temp Dewpoint Dewpoint Depression Visibility Wind Speed Wind Dir Waves Ship Positions

Fairpartner

Last reported at 2015-May-27 00:33 UTC. Time now 2015-May-28 08:09 UTC.
Position N 32°39' E 029°06'.

Length 143 m; beam 27 m.

Type: Cargo ship. MMSI: 246466992.

Date/timePositionNaut miles runAvg speedWind from/ knotsBaromVisibWave heightAir tempDewpointWater temp
2015-May-27 00:33N 32°39' E 029°06'1616.3
2015-May-26 23:33N 32°33' E 029°25'3316.7
2015-May-26 21:33N 32°23' E 030°02'1716.8
2015-May-26 20:33N 32°18' E 030°21'1716.7
2015-May-26 19:33N 32°13' E 030°40'1716.8
2015-May-26 18:33N 32°07' E 030°59'1716.6
2015-May-26 17:33N 32°01' E 031°17'1616.1
2015-May-26 16:33N 31°54' E 031°35'1616.1
2015-May-26 15:33N 31°48' E 031°52'1515.4
2015-May-26 14:33N 31°39' E 032°06'1515.3
2015-May-26 13:33N 31°29' E 032°20'1110.9
2015-May-26 12:33N 31°18' E 032°22'9 8.6
2015-May-26 11:33N 31°10' E 032°20'11 9.4
2015-May-26 10:25N 30°59' E 032°19'62 8.5
2015-May-26 03:08N 29°59' E 032°35'6 8.0
2015-May-26 02:21N 29°54' E 032°31'  

Dump ship's entire track history